sensor_id;sensor_type;location;lat;lon;timestamp;temperature;humidity
18073;DHT22;9161;47.348;9.648;2024-01-30T00:00:28;-0.60;99.90
18073;DHT22;9161;47.348;9.648;2024-01-30T00:05:31;-0.60;99.90
18073;DHT22;9161;47.348;9.648;2024-01-30T00:10:34;-0.60;99.90
18073;DHT22;9161;47.348;9.648;2024-01-30T00:15:38;-0.70;99.90
18073;DHT22;9161;47.348;9.648;2024-01-30T00:20:43;-0.80;99.90
18073;DHT22;9161;47.348;9.648;2024-01-30T00:25:45;-0.80;99.90
18073;DHT22;9161;47.348;9.648;2024-01-30T00:30:51;-0.80;99.90
18073;DHT22;9161;47.348;9.648;2024-01-30T00:35:55;-0.70;99.90
18073;DHT22;9161;47.348;9.648;2024-01-30T00:40:58;-0.70;99.90
18073;DHT22;9161;47.348;9.648;2024-01-30T00:46:03;-0.60;99.90
18073;DHT22;9161;47.348;9.648;2024-01-30T00:51:06;-0.70;99.90
18073;DHT22;9161;47.348;9.648;2024-01-30T00:56:09;-0.70;99.90
18073;DHT22;9161;47.348;9.648;2024-01-30T01:01:13;-0.70;99.90
18073;DHT22;9161;47.348;9.648;2024-01-30T01:06:15;-0.80;99.90
18073;DHT22;9161;47.348;9.648;2024-01-30T01:11:19;-0.80;99.90
18073;DHT22;9161;47.348;9.648;2024-01-30T01:16:25;-0.80;99.90
18073;DHT22;9161;47.348;9.648;2024-01-30T01:21:27;-0.80;99.90
18073;DHT22;9161;47.348;9.648;2024-01-30T01:26:31;-0.70;99.90
18073;DHT22;9161;47.348;9.648;2024-01-30T01:31:36;-0.70;99.90
18073;DHT22;9161;47.348;9.648;2024-01-30T01:36:45;-0.80;99.90
18073;DHT22;9161;47.348;9.648;2024-01-30T01:41:48;-0.80;99.90
18073;DHT22;9161;47.348;9.648;2024-01-30T01:46:54;-0.80;99.90
18073;DHT22;9161;47.348;9.648;2024-01-30T01:51:59;-0.80;99.90
18073;DHT22;9161;47.348;9.648;2024-01-30T01:57:05;-0.90;99.90
18073;DHT22;9161;47.348;9.648;2024-01-30T02:02:12;-0.90;99.90
18073;DHT22;9161;47.348;9.648;2024-01-30T02:07:18;-1.00;99.90
18073;DHT22;9161;47.348;9.648;2024-01-30T02:12:22;-1.00;99.90
18073;DHT22;9161;47.348;9.648;2024-01-30T02:17:27;-1.00;99.90
18073;DHT22;9161;47.348;9.648;2024-01-30T02:22:33;-1.00;99.90
18073;DHT22;9161;47.348;9.648;2024-01-30T02:27:37;-1.00;99.90
18073;DHT22;9161;47.348;9.648;2024-01-30T02:32:41;-1.00;99.90
18073;DHT22;9161;47.348;9.648;2024-01-30T02:37:46;-1.00;99.90
18073;DHT22;9161;47.348;9.648;2024-01-30T02:42:50;-1.00;99.90
18073;DHT22;9161;47.348;9.648;2024-01-30T02:47:52;-1.10;99.90
18073;DHT22;9161;47.348;9.648;2024-01-30T02:52:57;-1.00;99.90
18073;DHT22;9161;47.348;9.648;2024-01-30T02:57:59;-1.00;99.90
18073;DHT22;9161;47.348;9.648;2024-01-30T03:03:04;-1.00;99.90
18073;DHT22;9161;47.348;9.648;2024-01-30T03:08:09;-1.00;99.90
18073;DHT22;9161;47.348;9.648;2024-01-30T03:13:12;-1.00;99.90
18073;DHT22;9161;47.348;9.648;2024-01-30T03:18:17;-1.00;99.90
18073;DHT22;9161;47.348;9.648;2024-01-30T03:23:22;-1.00;99.90
18073;DHT22;9161;47.348;9.648;2024-01-30T03:28:25;-1.10;99.90
18073;DHT22;9161;47.348;9.648;2024-01-30T03:33:30;-1.00;99.90
18073;DHT22;9161;47.348;9.648;2024-01-30T03:38:34;-1.20;99.90
18073;DHT22;9161;47.348;9.648;2024-01-30T03:43:39;-1.30;99.90
18073;DHT22;9161;47.348;9.648;2024-01-30T03:48:44;-1.40;99.90
18073;DHT22;9161;47.348;9.648;2024-01-30T03:53:50;-1.40;99.90
18073;DHT22;9161;47.348;9.648;2024-01-30T03:58:53;-1.50;99.90
18073;DHT22;9161;47.348;9.648;2024-01-30T04:03:56;-1.50;99.90
18073;DHT22;9161;47.348;9.648;2024-01-30T04:09:00;-1.50;99.90
18073;DHT22;9161;47.348;9.648;2024-01-30T04:14:02;-1.60;99.90
18073;DHT22;9161;47.348;9.648;2024-01-30T04:19:04;-1.60;99.90
18073;DHT22;9161;47.348;9.648;2024-01-30T04:24:08;-1.70;99.90
18073;DHT22;9161;47.348;9.648;2024-01-30T04:29:10;-1.60;99.90
18073;DHT22;9161;47.348;9.648;2024-01-30T04:34:12;-1.70;99.90
18073;DHT22;9161;47.348;9.648;2024-01-30T04:39:16;-1.80;99.90
18073;DHT22;9161;47.348;9.648;2024-01-30T04:44:19;-1.90;99.90
18073;DHT22;9161;47.348;9.648;2024-01-30T04:49:21;-1.80;99.90
18073;DHT22;9161;47.348;9.648;2024-01-30T04:54:26;-1.90;99.90
18073;DHT22;9161;47.348;9.648;2024-01-30T04:59:28;-2.00;99.90
18073;DHT22;9161;47.348;9.648;2024-01-30T05:04:30;-2.00;99.90
18073;DHT22;9161;47.348;9.648;2024-01-30T05:09:36;-2.00;99.90
18073;DHT22;9161;47.348;9.648;2024-01-30T05:14:38;-2.00;99.90
18073;DHT22;9161;47.348;9.648;2024-01-30T05:19:40;-2.10;99.90
18073;DHT22;9161;47.348;9.648;2024-01-30T05:24:44;-2.20;99.90
18073;DHT22;9161;47.348;9.648;2024-01-30T05:29:46;-2.30;99.90
18073;DHT22;9161;47.348;9.648;2024-01-30T05:34:48;-2.30;99.90
18073;DHT22;9161;47.348;9.648;2024-01-30T05:39:53;-2.40;99.90
18073;DHT22;9161;47.348;9.648;2024-01-30T05:44:56;-2.50;99.90
18073;DHT22;9161;47.348;9.648;2024-01-30T05:49:58;-2.50;99.90
18073;DHT22;9161;47.348;9.648;2024-01-30T05:55:02;-2.50;99.90
18073;DHT22;9161;47.348;9.648;2024-01-30T06:00:06;-2.40;99.90
18073;DHT22;9161;47.348;9.648;2024-01-30T06:05:09;-2.40;99.90
18073;DHT22;9161;47.348;9.648;2024-01-30T06:10:14;-2.40;99.90
18073;DHT22;9161;47.348;9.648;2024-01-30T06:15:17;-2.40;99.90
18073;DHT22;9161;47.348;9.648;2024-01-30T06:20:19;-2.40;99.90
18073;DHT22;9161;47.348;9.648;2024-01-30T06:25:23;-2.30;99.90
18073;DHT22;9161;47.348;9.648;2024-01-30T06:30:25;-2.20;99.90
18073;DHT22;9161;47.348;9.648;2024-01-30T06:35:28;-2.20;99.90
18073;DHT22;9161;47.348;9.648;2024-01-30T06:40:32;-2.20;99.90
18073;DHT22;9161;47.348;9.648;2024-01-30T06:45:34;-2.00;99.90
18073;DHT22;9161;47.348;9.648;2024-01-30T06:50:36;-2.00;99.90
18073;DHT22;9161;47.348;9.648;2024-01-30T06:55:40;-2.00;99.90
18073;DHT22;9161;47.348;9.648;2024-01-30T07:00:42;-2.00;99.90
18073;DHT22;9161;47.348;9.648;2024-01-30T07:05:44;-1.80;99.90
18073;DHT22;9161;47.348;9.648;2024-01-30T07:10:48;-1.80;99.90
18073;DHT22;9161;47.348;9.648;2024-01-30T07:15:50;-1.80;99.90
18073;DHT22;9161;47.348;9.648;2024-01-30T07:20:52;-1.70;99.90
18073;DHT22;9161;47.348;9.648;2024-01-30T07:25:56;-1.70;99.90
18073;DHT22;9161;47.348;9.648;2024-01-30T07:30:58;-1.70;99.90
18073;DHT22;9161;47.348;9.648;2024-01-30T07:36:00;-1.60;99.90
18073;DHT22;9161;47.348;9.648;2024-01-30T07:41:04;-1.50;99.90
18073;DHT22;9161;47.348;9.648;2024-01-30T07:46:06;-1.50;99.90
18073;DHT22;9161;47.348;9.648;2024-01-30T07:51:08;-1.40;99.90
18073;DHT22;9161;47.348;9.648;2024-01-30T07:56:12;-1.30;99.90
18073;DHT22;9161;47.348;9.648;2024-01-30T08:01:15;-1.20;99.90
18073;DHT22;9161;47.348;9.648;2024-01-30T08:06:17;-1.10;99.90
18073;DHT22;9161;47.348;9.648;2024-01-30T08:11:22;-0.90;99.90
18073;DHT22;9161;47.348;9.648;2024-01-30T08:16:27;-0.80;99.90
18073;DHT22;9161;47.348;9.648;2024-01-30T08:21:29;-0.70;99.90
18073;DHT22;9161;47.348;9.648;2024-01-30T08:26:41;-0.40;99.90
18073;DHT22;9161;47.348;9.648;2024-01-30T08:31:43;-0.10;99.90
18073;DHT22;9161;47.348;9.648;2024-01-30T08:36:47;0.10;99.90
18073;DHT22;9161;47.348;9.648;2024-01-30T08:41:50;0.20;99.90
18073;DHT22;9161;47.348;9.648;2024-01-30T08:46:52;0.50;99.90
18073;DHT22;9161;47.348;9.648;2024-01-30T08:51:56;0.90;99.90
18073;DHT22;9161;47.348;9.648;2024-01-30T08:57:00;1.20;99.90
18073;DHT22;9161;47.348;9.648;2024-01-30T09:02:03;1.10;99.90
18073;DHT22;9161;47.348;9.648;2024-01-30T09:07:12;1.20;99.90
18073;DHT22;9161;47.348;9.648;2024-01-30T09:12:16;1.30;99.90
18073;DHT22;9161;47.348;9.648;2024-01-30T09:17:20;1.30;99.90
18073;DHT22;9161;47.348;9.648;2024-01-30T09:22:23;1.30;99.90
18073;DHT22;9161;47.348;9.648;2024-01-30T09:27:28;0.90;99.90
18073;DHT22;9161;47.348;9.648;2024-01-30T09:32:31;0.90;99.90
18073;DHT22;9161;47.348;9.648;2024-01-30T09:37:35;1.00;99.90
18073;DHT22;9161;47.348;9.648;2024-01-30T09:42:40;1.20;99.90
18073;DHT22;9161;47.348;9.648;2024-01-30T09:47:46;1.20;99.90
18073;DHT22;9161;47.348;9.648;2024-01-30T09:52:50;1.40;99.90
18073;DHT22;9161;47.348;9.648;2024-01-30T09:57:54;1.70;99.90
18073;DHT22;9161;47.348;9.648;2024-01-30T10:02:57;2.20;99.90
18073;DHT22;9161;47.348;9.648;2024-01-30T10:07:59;2.90;99.90
18073;DHT22;9161;47.348;9.648;2024-01-30T10:13:04;3.20;99.90
18073;DHT22;9161;47.348;9.648;2024-01-30T10:18:07;3.60;99.90
18073;DHT22;9161;47.348;9.648;2024-01-30T10:23:11;4.30;99.90
18073;DHT22;9161;47.348;9.648;2024-01-30T10:28:15;5.20;99.90
18073;DHT22;9161;47.348;9.648;2024-01-30T10:33:17;6.00;99.90
18073;DHT22;9161;47.348;9.648;2024-01-30T10:38:20;6.40;99.90
18073;DHT22;9161;47.348;9.648;2024-01-30T10:43:30;6.40;99.90
18073;DHT22;9161;47.348;9.648;2024-01-30T10:48:37;5.80;99.90
18073;DHT22;9161;47.348;9.648;2024-01-30T10:53:46;8.20;99.90
18073;DHT22;9161;47.348;9.648;2024-01-30T10:58:53;9.50;99.90
18073;DHT22;9161;47.348;9.648;2024-01-30T11:03:56;9.70;99.90
18073;DHT22;9161;47.348;9.648;2024-01-30T11:09:03;9.30;99.90
18073;DHT22;9161;47.348;9.648;2024-01-30T11:14:13;9.50;99.90
18073;DHT22;9161;47.348;9.648;2024-01-30T11:19:23;10.60;99.90
18073;DHT22;9161;47.348;9.648;2024-01-30T11:24:27;10.70;99.90
18073;DHT22;9161;47.348;9.648;2024-01-30T11:29:35;11.00;99.90
18073;DHT22;9161;47.348;9.648;2024-01-30T11:34:41;11.70;99.90
18073;DHT22;9161;47.348;9.648;2024-01-30T11:39:44;12.00;99.90
18073;DHT22;9161;47.348;9.648;2024-01-30T11:44:50;12.10;99.90
18073;DHT22;9161;47.348;9.648;2024-01-30T11:49:53;11.60;99.90
18073;DHT22;9161;47.348;9.648;2024-01-30T11:55:00;12.10;99.90
18073;DHT22;9161;47.348;9.648;2024-01-30T12:00:06;12.20;99.90
18073;DHT22;9161;47.348;9.648;2024-01-30T12:05:12;12.60;99.90
18073;DHT22;9161;47.348;9.648;2024-01-30T12:10:15;13.10;99.90
18073;DHT22;9161;47.348;9.648;2024-01-30T12:15:22;13.10;99.90
18073;DHT22;9161;47.348;9.648;2024-01-30T12:20:26;13.50;99.90
18073;DHT22;9161;47.348;9.648;2024-01-30T12:25:31;13.50;99.90
18073;DHT22;9161;47.348;9.648;2024-01-30T12:30:37;12.30;99.90
18073;DHT22;9161;47.348;9.648;2024-01-30T12:35:46;12.80;99.90
18073;DHT22;9161;47.348;9.648;2024-01-30T12:41:03;12.50;99.90
18073;DHT22;9161;47.348;9.648;2024-01-30T12:46:09;12.90;99.90
18073;DHT22;9161;47.348;9.648;2024-01-30T12:51:12;13.40;99.90
18073;DHT22;9161;47.348;9.648;2024-01-30T12:56:15;13.30;99.90
18073;DHT22;9161;47.348;9.648;2024-01-30T13:01:20;13.30;99.90
18073;DHT22;9161;47.348;9.648;2024-01-30T13:06:24;13.30;99.90
18073;DHT22;9161;47.348;9.648;2024-01-30T13:11:27;13.90;99.90
18073;DHT22;9161;47.348;9.648;2024-01-30T13:16:31;14.60;99.90
18073;DHT22;9161;47.348;9.648;2024-01-30T13:21:34;14.90;99.90
18073;DHT22;9161;47.348;9.648;2024-01-30T13:26:37;14.70;99.90
18073;DHT22;9161;47.348;9.648;2024-01-30T13:31:41;12.60;99.90
18073;DHT22;9161;47.348;9.648;2024-01-30T13:36:45;11.60;99.90
18073;DHT22;9161;47.348;9.648;2024-01-30T13:41:49;10.70;99.90
18073;DHT22;9161;47.348;9.648;2024-01-30T13:46:54;9.80;99.90
18073;DHT22;9161;47.348;9.648;2024-01-30T13:51:57;9.30;99.90
18073;DHT22;9161;47.348;9.648;2024-01-30T13:57:00;9.10;99.90
18073;DHT22;9161;47.348;9.648;2024-01-30T14:02:04;10.50;99.90
18073;DHT22;9161;47.348;9.648;2024-01-30T14:07:10;12.10;99.90
18073;DHT22;9161;47.348;9.648;2024-01-30T14:12:12;14.70;99.90
18073;DHT22;9161;47.348;9.648;2024-01-30T14:17:16;15.70;99.90
18073;DHT22;9161;47.348;9.648;2024-01-30T14:22:19;16.20;99.90
18073;DHT22;9161;47.348;9.648;2024-01-30T14:27:22;16.20;99.90
18073;DHT22;9161;47.348;9.648;2024-01-30T14:32:27;16.30;99.90
18073;DHT22;9161;47.348;9.648;2024-01-30T14:37:31;17.30;99.90
18073;DHT22;9161;47.348;9.648;2024-01-30T14:42:34;17.50;99.90
18073;DHT22;9161;47.348;9.648;2024-01-30T14:47:39;17.70;99.90
18073;DHT22;9161;47.348;9.648;2024-01-30T14:52:42;17.00;99.90
18073;DHT22;9161;47.348;9.648;2024-01-30T14:57:45;16.50;99.90
18073;DHT22;9161;47.348;9.648;2024-01-30T15:02:49;15.80;99.90
18073;DHT22;9161;47.348;9.648;2024-01-30T15:07:53;14.80;99.90
18073;DHT22;9161;47.348;9.648;2024-01-30T15:12:56;14.40;99.90
18073;DHT22;9161;47.348;9.648;2024-01-30T15:18:00;13.60;99.90
18073;DHT22;9161;47.348;9.648;2024-01-30T15:23:02;12.20;99.90
18073;DHT22;9161;47.348;9.648;2024-01-30T15:28:05;10.40;99.90
18073;DHT22;9161;47.348;9.648;2024-01-30T15:33:09;8.60;99.90
18073;DHT22;9161;47.348;9.648;2024-01-30T15:38:12;7.50;99.90
18073;DHT22;9161;47.348;9.648;2024-01-30T15:49:33;6.40;99.90
18073;DHT22;9161;47.348;9.648;2024-01-30T15:54:35;6.20;99.90
18073;DHT22;9161;47.348;9.648;2024-01-30T15:59:38;5.90;99.90
18073;DHT22;9161;47.348;9.648;2024-01-30T16:04:41;5.60;99.90
18073;DHT22;9161;47.348;9.648;2024-01-30T16:09:43;5.40;99.90
18073;DHT22;9161;47.348;9.648;2024-01-30T16:14:46;5.20;99.90
18073;DHT22;9161;47.348;9.648;2024-01-30T16:19:50;5.00;99.90
18073;DHT22;9161;47.348;9.648;2024-01-30T16:24:52;4.70;99.90
18073;DHT22;9161;47.348;9.648;2024-01-30T16:30:45;4.60;99.90
18073;DHT22;9161;47.348;9.648;2024-01-30T16:41:47;4.30;99.90
18073;DHT22;9161;47.348;9.648;2024-01-30T16:46:50;4.10;99.90
18073;DHT22;9161;47.348;9.648;2024-01-30T16:52:01;4.00;99.90
18073;DHT22;9161;47.348;9.648;2024-01-30T17:03:14;3.80;99.90
18073;DHT22;9161;47.348;9.648;2024-01-30T17:08:17;3.70;99.90
18073;DHT22;9161;47.348;9.648;2024-01-30T17:13:19;3.70;99.90
18073;DHT22;9161;47.348;9.648;2024-01-30T17:18:23;3.90;99.90
18073;DHT22;9161;47.348;9.648;2024-01-30T17:23:25;3.80;99.90
18073;DHT22;9161;47.348;9.648;2024-01-30T17:28:29;3.90;99.90
18073;DHT22;9161;47.348;9.648;2024-01-30T17:33:33;4.20;99.90
18073;DHT22;9161;47.348;9.648;2024-01-30T17:38:36;4.50;99.90
18073;DHT22;9161;47.348;9.648;2024-01-30T17:43:39;4.50;99.90
18073;DHT22;9161;47.348;9.648;2024-01-30T17:48:44;4.40;99.90
18073;DHT22;9161;47.348;9.648;2024-01-30T17:53:48;4.20;99.90
18073;DHT22;9161;47.348;9.648;2024-01-30T17:58:51;3.90;99.90
18073;DHT22;9161;47.348;9.648;2024-01-30T18:03:56;3.80;99.90
18073;DHT22;9161;47.348;9.648;2024-01-30T18:08:59;3.70;99.90
18073;DHT22;9161;47.348;9.648;2024-01-30T18:14:01;3.80;99.90
18073;DHT22;9161;47.348;9.648;2024-01-30T18:19:05;4.00;99.90
18073;DHT22;9161;47.348;9.648;2024-01-30T18:24:08;3.70;99.90
18073;DHT22;9161;47.348;9.648;2024-01-30T18:29:09;3.60;99.90
18073;DHT22;9161;47.348;9.648;2024-01-30T18:34:13;3.50;99.90
18073;DHT22;9161;47.348;9.648;2024-01-30T18:39:16;3.50;99.90
18073;DHT22;9161;47.348;9.648;2024-01-30T18:44:20;3.60;99.90
18073;DHT22;9161;47.348;9.648;2024-01-30T18:49:26;3.70;99.90
18073;DHT22;9161;47.348;9.648;2024-01-30T18:54:34;3.80;99.90
18073;DHT22;9161;47.348;9.648;2024-01-30T18:59:40;3.70;99.90
18073;DHT22;9161;47.348;9.648;2024-01-30T19:04:47;3.50;99.90
18073;DHT22;9161;47.348;9.648;2024-01-30T19:09:53;3.20;99.90
18073;DHT22;9161;47.348;9.648;2024-01-30T19:15:00;3.10;99.90
18073;DHT22;9161;47.348;9.648;2024-01-30T19:26:41;2.80;99.90
18073;DHT22;9161;47.348;9.648;2024-01-30T19:31:47;2.70;99.90
18073;DHT22;9161;47.348;9.648;2024-01-30T19:36:53;2.80;99.90
18073;DHT22;9161;47.348;9.648;2024-01-30T19:41:58;2.80;99.90
18073;DHT22;9161;47.348;9.648;2024-01-30T19:47:02;2.70;99.90
18073;DHT22;9161;47.348;9.648;2024-01-30T19:52:12;2.60;99.90
18073;DHT22;9161;47.348;9.648;2024-01-30T19:57:16;2.50;99.90
18073;DHT22;9161;47.348;9.648;2024-01-30T20:02:20;2.60;99.90
18073;DHT22;9161;47.348;9.648;2024-01-30T20:07:28;2.50;99.90
18073;DHT22;9161;47.348;9.648;2024-01-30T20:12:34;2.50;99.90
18073;DHT22;9161;47.348;9.648;2024-01-30T20:17:39;2.40;99.90
18073;DHT22;9161;47.348;9.648;2024-01-30T20:22:46;2.60;99.90
18073;DHT22;9161;47.348;9.648;2024-01-30T20:27:49;2.50;99.90
18073;DHT22;9161;47.348;9.648;2024-01-30T20:32:52;2.40;99.90
18073;DHT22;9161;47.348;9.648;2024-01-30T20:37:58;2.40;99.90
18073;DHT22;9161;47.348;9.648;2024-01-30T20:43:02;2.40;99.90
18073;DHT22;9161;47.348;9.648;2024-01-30T20:48:10;2.60;99.90
18073;DHT22;9161;47.348;9.648;2024-01-30T20:53:20;2.50;99.90
18073;DHT22;9161;47.348;9.648;2024-01-30T20:58:25;2.50;99.90
18073;DHT22;9161;47.348;9.648;2024-01-30T21:03:31;2.60;99.90
18073;DHT22;9161;47.348;9.648;2024-01-30T21:08:39;2.60;99.90
18073;DHT22;9161;47.348;9.648;2024-01-30T21:13:44;2.60;99.90
18073;DHT22;9161;47.348;9.648;2024-01-30T21:18:48;2.70;99.90
18073;DHT22;9161;47.348;9.648;2024-01-30T21:23:56;2.70;99.90
18073;DHT22;9161;47.348;9.648;2024-01-30T21:29:00;2.70;99.90
18073;DHT22;9161;47.348;9.648;2024-01-30T21:34:04;2.80;99.90
18073;DHT22;9161;47.348;9.648;2024-01-30T21:39:13;2.80;99.90
18073;DHT22;9161;47.348;9.648;2024-01-30T21:44:18;2.80;99.90
18073;DHT22;9161;47.348;9.648;2024-01-30T21:49:21;2.80;99.90
18073;DHT22;9161;47.348;9.648;2024-01-30T21:54:30;2.80;99.90
18073;DHT22;9161;47.348;9.648;2024-01-30T21:59:34;2.80;99.90
18073;DHT22;9161;47.348;9.648;2024-01-30T22:04:37;2.80;99.90
18073;DHT22;9161;47.348;9.648;2024-01-30T22:09:42;2.80;99.90
18073;DHT22;9161;47.348;9.648;2024-01-30T22:14:44;2.70;99.90
18073;DHT22;9161;47.348;9.648;2024-01-30T22:19:47;2.80;99.90
18073;DHT22;9161;47.348;9.648;2024-01-30T22:24:52;2.70;99.90
18073;DHT22;9161;47.348;9.648;2024-01-30T22:29:55;2.60;99.90
18073;DHT22;9161;47.348;9.648;2024-01-30T22:34:58;2.50;99.90
18073;DHT22;9161;47.348;9.648;2024-01-30T22:40:03;2.40;99.90
18073;DHT22;9161;47.348;9.648;2024-01-30T22:45:07;2.50;99.90
18073;DHT22;9161;47.348;9.648;2024-01-30T22:50:09;2.40;99.90
18073;DHT22;9161;47.348;9.648;2024-01-30T22:55:14;2.20;99.90
18073;DHT22;9161;47.348;9.648;2024-01-30T23:00:18;2.10;99.90
18073;DHT22;9161;47.348;9.648;2024-01-30T23:05:26;2.00;99.90
18073;DHT22;9161;47.348;9.648;2024-01-30T23:10:32;1.80;99.90
18073;DHT22;9161;47.348;9.648;2024-01-30T23:15:35;1.80;99.90
18073;DHT22;9161;47.348;9.648;2024-01-30T23:20:38;1.70;99.90
18073;DHT22;9161;47.348;9.648;2024-01-30T23:25:42;1.70;99.90
18073;DHT22;9161;47.348;9.648;2024-01-30T23:30:45;1.80;99.90
18073;DHT22;9161;47.348;9.648;2024-01-30T23:35:47;1.60;99.90
18073;DHT22;9161;47.348;9.648;2024-01-30T23:40:51;1.50;99.90
18073;DHT22;9161;47.348;9.648;2024-01-30T23:45:54;1.60;99.90
18073;DHT22;9161;47.348;9.648;2024-01-30T23:50:56;1.70;99.90
18073;DHT22;9161;47.348;9.648;2024-01-30T23:56:00;1.60;99.90
